sensor_id;sensor_type;location;lat;lon;timestamp;P1;durP1;ratioP1;P2;durP2;ratioP2
47089;SDS011;32840;52.516;13.294;2022-07-29T00:01:00;8.73;;;3.50;;
47089;SDS011;32840;52.516;13.294;2022-07-29T00:03:45;7.22;;;2.92;;
47089;SDS011;32840;52.516;13.294;2022-07-29T00:06:30;6.25;;;3.00;;
47089;SDS011;32840;52.516;13.294;2022-07-29T00:09:15;9.82;;;3.22;;
47089;SDS011;32840;52.516;13.294;2022-07-29T00:12:00;10.38;;;3.55;;
47089;SDS011;32840;52.516;13.294;2022-07-29T00:14:45;9.48;;;3.13;;
47089;SDS011;32840;52.516;13.294;2022-07-29T00:17:30;10.38;;;4.13;;
47089;SDS011;32840;52.516;13.294;2022-07-29T00:20:15;6.70;;;3.67;;
47089;SDS011;32840;52.516;13.294;2022-07-29T00:23:00;5.32;;;3.83;;
47089;SDS011;32840;52.516;13.294;2022-07-29T00:25:45;8.93;;;3.78;;
47089;SDS011;32840;52.516;13.294;2022-07-29T00:28:30;9.70;;;3.55;;
47089;SDS011;32840;52.516;13.294;2022-07-29T00:31:15;7.22;;;4.32;;
47089;SDS011;32840;52.516;13.294;2022-07-29T00:34:00;6.28;;;3.55;;
47089;SDS011;32840;52.516;13.294;2022-07-29T00:36:44;6.60;;;4.05;;
47089;SDS011;32840;52.516;13.294;2022-07-29T00:39:29;6.57;;;3.83;;
47089;SDS011;32840;52.516;13.294;2022-07-29T00:42:14;9.02;;;3.78;;
47089;SDS011;32840;52.516;13.294;2022-07-29T00:44:59;8.35;;;3.83;;
47089;SDS011;32840;52.516;13.294;2022-07-29T00:47:44;10.13;;;3.92;;
47089;SDS011;32840;52.516;13.294;2022-07-29T00:50:29;9.55;;;3.90;;
47089;SDS011;32840;52.516;13.294;2022-07-29T00:53:14;8.05;;;3.70;;
47089;SDS011;32840;52.516;13.294;2022-07-29T00:55:59;7.43;;;3.80;;
47089;SDS011;32840;52.516;13.294;2022-07-29T00:58:44;7.88;;;4.07;;
47089;SDS011;32840;52.516;13.294;2022-07-29T01:01:32;6.88;;;3.60;;
47089;SDS011;32840;52.516;13.294;2022-07-29T01:04:17;7.10;;;3.65;;
47089;SDS011;32840;52.516;13.294;2022-07-29T01:07:02;8.40;;;3.90;;
47089;SDS011;32840;52.516;13.294;2022-07-29T01:09:48;8.63;;;4.32;;
47089;SDS011;32840;52.516;13.294;2022-07-29T01:12:33;5.22;;;3.10;;
47089;SDS011;32840;52.516;13.294;2022-07-29T01:15:19;11.52;;;4.55;;
47089;SDS011;32840;52.516;13.294;2022-07-29T01:18:14;10.57;;;3.97;;
47089;SDS011;32840;52.516;13.294;2022-07-29T01:27:38;8.77;;;4.50;;
47089;SDS011;32840;52.516;13.294;2022-07-29T01:30:32;10.70;;;4.03;;
47089;SDS011;32840;52.516;13.294;2022-07-29T01:33:19;6.35;;;3.70;;
47089;SDS011;32840;52.516;13.294;2022-07-29T01:36:29;7.07;;;3.72;;
47089;SDS011;32840;52.516;13.294;2022-07-29T01:39:27;6.43;;;3.60;;
47089;SDS011;32840;52.516;13.294;2022-07-29T01:42:22;7.28;;;4.13;;
47089;SDS011;32840;52.516;13.294;2022-07-29T01:45:17;9.20;;;3.92;;
47089;SDS011;32840;52.516;13.294;2022-07-29T01:48:13;6.95;;;3.97;;
47089;SDS011;32840;52.516;13.294;2022-07-29T01:51:04;7.85;;;3.92;;
47089;SDS011;32840;52.516;13.294;2022-07-29T01:54:10;5.97;;;3.80;;
47089;SDS011;32840;52.516;13.294;2022-07-29T01:57:09;10.25;;;3.83;;
47089;SDS011;32840;52.516;13.294;2022-07-29T01:59:58;8.43;;;4.00;;
47089;SDS011;32840;52.516;13.294;2022-07-29T02:02:45;7.82;;;4.18;;
47089;SDS011;32840;52.516;13.294;2022-07-29T02:05:32;9.20;;;4.03;;
47089;SDS011;32840;52.516;13.294;2022-07-29T02:08:18;9.80;;;4.03;;
47089;SDS011;32840;52.516;13.294;2022-07-29T02:11:05;8.32;;;3.85;;
47089;SDS011;32840;52.516;13.294;2022-07-29T02:13:55;7.00;;;3.85;;
47089;SDS011;32840;52.516;13.294;2022-07-29T02:16:41;9.65;;;3.95;;
47089;SDS011;32840;52.516;13.294;2022-07-29T02:19:27;8.15;;;3.45;;
47089;SDS011;32840;52.516;13.294;2022-07-29T02:22:15;9.00;;;3.90;;
47089;SDS011;32840;52.516;13.294;2022-07-29T02:25:02;9.20;;;3.95;;
47089;SDS011;32840;52.516;13.294;2022-07-29T02:27:48;6.88;;;3.30;;
47089;SDS011;32840;52.516;13.294;2022-07-29T02:30:39;6.82;;;3.45;;
47089;SDS011;32840;52.516;13.294;2022-07-29T02:36:11;7.72;;;3.53;;
47089;SDS011;32840;52.516;13.294;2022-07-29T02:38:56;8.05;;;3.38;;
47089;SDS011;32840;52.516;13.294;2022-07-29T02:41:46;10.20;;;3.28;;
47089;SDS011;32840;52.516;13.294;2022-07-29T02:44:33;4.80;;;3.13;;
47089;SDS011;32840;52.516;13.294;2022-07-29T02:47:21;9.18;;;3.75;;
47089;SDS011;32840;52.516;13.294;2022-07-29T02:50:20;7.20;;;3.42;;
47089;SDS011;32840;52.516;13.294;2022-07-29T02:53:14;8.65;;;3.45;;
47089;SDS011;32840;52.516;13.294;2022-07-29T02:56:13;7.72;;;3.25;;
47089;SDS011;32840;52.516;13.294;2022-07-29T02:59:01;6.00;;;3.13;;
47089;SDS011;32840;52.516;13.294;2022-07-29T03:01:49;7.15;;;3.15;;
47089;SDS011;32840;52.516;13.294;2022-07-29T03:04:35;9.82;;;3.60;;
47089;SDS011;32840;52.516;13.294;2022-07-29T03:07:22;10.68;;;3.55;;
47089;SDS011;32840;52.516;13.294;2022-07-29T03:10:07;6.20;;;3.42;;
47089;SDS011;32840;52.516;13.294;2022-07-29T03:12:54;9.38;;;3.90;;
47089;SDS011;32840;52.516;13.294;2022-07-29T03:15:42;6.57;;;3.28;;
47089;SDS011;32840;52.516;13.294;2022-07-29T03:18:28;5.30;;;3.17;;
47089;SDS011;32840;52.516;13.294;2022-07-29T03:21:14;6.88;;;3.05;;
47089;SDS011;32840;52.516;13.294;2022-07-29T03:23:59;7.22;;;3.85;;
47089;SDS011;32840;52.516;13.294;2022-07-29T03:26:44;7.82;;;3.67;;
47089;SDS011;32840;52.516;13.294;2022-07-29T03:29:29;10.73;;;3.95;;
47089;SDS011;32840;52.516;13.294;2022-07-29T03:32:14;7.55;;;3.33;;
47089;SDS011;32840;52.516;13.294;2022-07-29T03:34:59;7.72;;;3.50;;
47089;SDS011;32840;52.516;13.294;2022-07-29T03:37:45;8.43;;;3.10;;
47089;SDS011;32840;52.516;13.294;2022-07-29T03:40:31;7.05;;;3.40;;
47089;SDS011;32840;52.516;13.294;2022-07-29T03:43:20;7.43;;;3.65;;
47089;SDS011;32840;52.516;13.294;2022-07-29T03:46:09;12.88;;;3.67;;
47089;SDS011;32840;52.516;13.294;2022-07-29T03:48:55;7.03;;;3.40;;
47089;SDS011;32840;52.516;13.294;2022-07-29T03:51:44;7.80;;;3.53;;
47089;SDS011;32840;52.516;13.294;2022-07-29T03:54:29;6.93;;;3.55;;
47089;SDS011;32840;52.516;13.294;2022-07-29T03:57:14;4.95;;;3.58;;
47089;SDS011;32840;52.516;13.294;2022-07-29T04:00:00;6.95;;;3.47;;
47089;SDS011;32840;52.516;13.294;2022-07-29T04:02:48;6.72;;;3.40;;
47089;SDS011;32840;52.516;13.294;2022-07-29T04:05:33;9.35;;;3.63;;
47089;SDS011;32840;52.516;13.294;2022-07-29T04:08:18;10.95;;;3.60;;
47089;SDS011;32840;52.516;13.294;2022-07-29T04:11:03;7.45;;;3.75;;
47089;SDS011;32840;52.516;13.294;2022-07-29T04:13:49;6.80;;;3.30;;
47089;SDS011;32840;52.516;13.294;2022-07-29T04:16:34;6.38;;;3.50;;
47089;SDS011;32840;52.516;13.294;2022-07-29T04:19:18;8.55;;;3.58;;
47089;SDS011;32840;52.516;13.294;2022-07-29T04:22:03;7.70;;;3.40;;
47089;SDS011;32840;52.516;13.294;2022-07-29T04:24:48;8.35;;;3.47;;
47089;SDS011;32840;52.516;13.294;2022-07-29T04:27:33;8.43;;;3.80;;
47089;SDS011;32840;52.516;13.294;2022-07-29T04:30:18;6.05;;;3.08;;
47089;SDS011;32840;52.516;13.294;2022-07-29T04:33:04;10.00;;;3.95;;
47089;SDS011;32840;52.516;13.294;2022-07-29T04:35:50;6.47;;;3.20;;
47089;SDS011;32840;52.516;13.294;2022-07-29T04:38:35;11.45;;;6.35;;
47089;SDS011;32840;52.516;13.294;2022-07-29T04:41:20;8.52;;;3.08;;
47089;SDS011;32840;52.516;13.294;2022-07-29T04:44:04;8.20;;;3.58;;
47089;SDS011;32840;52.516;13.294;2022-07-29T04:46:49;6.80;;;3.10;;
47089;SDS011;32840;52.516;13.294;2022-07-29T04:49:36;9.32;;;3.72;;
47089;SDS011;32840;52.516;13.294;2022-07-29T04:52:22;5.50;;;3.45;;
47089;SDS011;32840;52.516;13.294;2022-07-29T04:55:07;7.63;;;3.92;;
47089;SDS011;32840;52.516;13.294;2022-07-29T04:57:52;8.30;;;4.40;;
47089;SDS011;32840;52.516;13.294;2022-07-29T05:00:37;7.15;;;3.38;;
47089;SDS011;32840;52.516;13.294;2022-07-29T05:03:22;9.65;;;4.03;;
47089;SDS011;32840;52.516;13.294;2022-07-29T05:06:07;9.68;;;3.85;;
47089;SDS011;32840;52.516;13.294;2022-07-29T05:08:52;5.93;;;3.10;;
47089;SDS011;32840;52.516;13.294;2022-07-29T05:11:37;8.63;;;3.72;;
47089;SDS011;32840;52.516;13.294;2022-07-29T05:14:22;6.25;;;3.05;;
47089;SDS011;32840;52.516;13.294;2022-07-29T05:17:07;7.22;;;3.60;;
47089;SDS011;32840;52.516;13.294;2022-07-29T05:19:52;6.28;;;3.22;;
47089;SDS011;32840;52.516;13.294;2022-07-29T05:22:37;11.57;;;3.33;;
47089;SDS011;32840;52.516;13.294;2022-07-29T05:25:22;7.20;;;3.78;;
47089;SDS011;32840;52.516;13.294;2022-07-29T05:28:07;6.35;;;3.38;;
47089;SDS011;32840;52.516;13.294;2022-07-29T05:30:52;10.77;;;3.92;;
47089;SDS011;32840;52.516;13.294;2022-07-29T05:33:37;7.20;;;3.58;;
47089;SDS011;32840;52.516;13.294;2022-07-29T05:36:22;11.55;;;3.55;;
47089;SDS011;32840;52.516;13.294;2022-07-29T05:39:07;10.25;;;3.30;;
47089;SDS011;32840;52.516;13.294;2022-07-29T05:41:52;9.40;;;3.83;;
47089;SDS011;32840;52.516;13.294;2022-07-29T05:44:37;6.47;;;3.50;;
47089;SDS011;32840;52.516;13.294;2022-07-29T05:47:23;7.13;;;2.75;;
47089;SDS011;32840;52.516;13.294;2022-07-29T05:50:08;9.75;;;3.72;;
47089;SDS011;32840;52.516;13.294;2022-07-29T05:52:53;9.23;;;3.30;;
47089;SDS011;32840;52.516;13.294;2022-07-29T05:55:38;9.23;;;3.45;;
47089;SDS011;32840;52.516;13.294;2022-07-29T05:58:23;10.77;;;3.63;;
47089;SDS011;32840;52.516;13.294;2022-07-29T06:01:08;11.65;;;4.05;;
47089;SDS011;32840;52.516;13.294;2022-07-29T06:03:53;7.75;;;3.40;;
47089;SDS011;32840;52.516;13.294;2022-07-29T06:06:40;10.50;;;3.47;;
47089;SDS011;32840;52.516;13.294;2022-07-29T06:09:25;8.10;;;3.10;;
47089;SDS011;32840;52.516;13.294;2022-07-29T06:12:10;19.08;;;4.13;;
47089;SDS011;32840;52.516;13.294;2022-07-29T06:14:55;12.07;;;3.75;;
47089;SDS011;32840;52.516;13.294;2022-07-29T06:17:40;9.55;;;3.45;;
47089;SDS011;32840;52.516;13.294;2022-07-29T06:20:25;8.20;;;3.63;;
47089;SDS011;32840;52.516;13.294;2022-07-29T06:23:10;7.85;;;3.25;;
47089;SDS011;32840;52.516;13.294;2022-07-29T06:25:55;7.68;;;3.28;;
47089;SDS011;32840;52.516;13.294;2022-07-29T06:28:40;9.90;;;3.88;;
47089;SDS011;32840;52.516;13.294;2022-07-29T06:31:25;9.20;;;3.45;;
47089;SDS011;32840;52.516;13.294;2022-07-29T06:34:10;8.57;;;3.42;;
47089;SDS011;32840;52.516;13.294;2022-07-29T06:36:55;9.48;;;4.10;;
47089;SDS011;32840;52.516;13.294;2022-07-29T06:39:40;11.23;;;3.08;;
47089;SDS011;32840;52.516;13.294;2022-07-29T20:38:04;7.25;;;2.55;;
47089;SDS011;32840;52.516;13.294;2022-07-29T20:40:50;7.95;;;2.60;;
47089;SDS011;32840;52.516;13.294;2022-07-29T20:43:36;5.45;;;2.72;;
47089;SDS011;32840;52.516;13.294;2022-07-29T20:46:21;8.85;;;2.50;;
47089;SDS011;32840;52.516;13.294;2022-07-29T20:49:06;9.63;;;2.55;;
47089;SDS011;32840;52.516;13.294;2022-07-29T20:51:51;8.43;;;2.78;;
47089;SDS011;32840;52.516;13.294;2022-07-29T20:54:35;6.93;;;2.60;;
47089;SDS011;32840;52.516;13.294;2022-07-29T20:57:20;5.75;;;2.28;;
47089;SDS011;32840;52.516;13.294;2022-07-29T21:00:05;3.58;;;2.47;;
47089;SDS011;32840;52.516;13.294;2022-07-29T21:02:51;6.75;;;2.22;;
47089;SDS011;32840;52.516;13.294;2022-07-29T21:05:36;9.02;;;3.00;;
47089;SDS011;32840;52.516;13.294;2022-07-29T21:08:21;6.18;;;2.80;;
47089;SDS011;32840;52.516;13.294;2022-07-29T21:11:06;4.35;;;2.33;;
47089;SDS011;32840;52.516;13.294;2022-07-29T21:13:51;6.85;;;2.15;;
47089;SDS011;32840;52.516;13.294;2022-07-29T21:16:37;6.45;;;2.42;;
47089;SDS011;32840;52.516;13.294;2022-07-29T21:19:21;4.40;;;2.53;;
47089;SDS011;32840;52.516;13.294;2022-07-29T21:22:06;4.43;;;2.38;;
47089;SDS011;32840;52.516;13.294;2022-07-29T21:24:51;7.20;;;2.55;;
47089;SDS011;32840;52.516;13.294;2022-07-29T21:27:36;7.15;;;2.28;;
47089;SDS011;32840;52.516;13.294;2022-07-29T21:30:40;5.18;;;2.35;;
47089;SDS011;32840;52.516;13.294;2022-07-29T21:33:26;5.10;;;2.58;;
47089;SDS011;32840;52.516;13.294;2022-07-29T21:36:13;5.80;;;2.55;;
47089;SDS011;32840;52.516;13.294;2022-07-29T21:38:58;5.07;;;2.00;;
47089;SDS011;32840;52.516;13.294;2022-07-29T21:41:49;7.78;;;2.45;;
47089;SDS011;32840;52.516;13.294;2022-07-29T21:44:34;10.13;;;2.60;;
47089;SDS011;32840;52.516;13.294;2022-07-29T21:47:24;5.50;;;2.42;;
47089;SDS011;32840;52.516;13.294;2022-07-29T21:50:09;6.85;;;3.05;;
47089;SDS011;32840;52.516;13.294;2022-07-29T21:52:54;6.18;;;2.63;;
47089;SDS011;32840;52.516;13.294;2022-07-29T21:55:39;5.93;;;2.30;;
47089;SDS011;32840;52.516;13.294;2022-07-29T21:58:24;4.65;;;2.45;;
47089;SDS011;32840;52.516;13.294;2022-07-29T22:01:09;4.40;;;2.40;;
47089;SDS011;32840;52.516;13.294;2022-07-29T22:03:55;6.85;;;1.98;;
47089;SDS011;32840;52.516;13.294;2022-07-29T22:06:40;4.60;;;2.22;;
47089;SDS011;32840;52.516;13.294;2022-07-29T22:09:25;4.43;;;2.10;;
47089;SDS011;32840;52.516;13.294;2022-07-29T22:12:10;6.65;;;2.40;;
47089;SDS011;32840;52.516;13.294;2022-07-29T22:14:55;6.40;;;2.38;;
47089;SDS011;32840;52.516;13.294;2022-07-29T22:17:40;7.93;;;2.33;;
47089;SDS011;32840;52.516;13.294;2022-07-29T22:20:25;4.38;;;2.50;;
47089;SDS011;32840;52.516;13.294;2022-07-29T22:23:10;5.32;;;2.20;;
47089;SDS011;32840;52.516;13.294;2022-07-29T22:25:55;7.40;;;2.35;;
47089;SDS011;32840;52.516;13.294;2022-07-29T22:28:40;7.10;;;2.33;;
47089;SDS011;32840;52.516;13.294;2022-07-29T22:31:25;6.50;;;2.67;;
47089;SDS011;32840;52.516;13.294;2022-07-29T22:34:10;8.50;;;2.40;;
47089;SDS011;32840;52.516;13.294;2022-07-29T22:36:57;6.30;;;2.20;;
47089;SDS011;32840;52.516;13.294;2022-07-29T22:39:42;7.45;;;2.50;;
47089;SDS011;32840;52.516;13.294;2022-07-29T22:42:27;4.80;;;2.10;;
47089;SDS011;32840;52.516;13.294;2022-07-29T22:45:12;6.25;;;2.33;;
47089;SDS011;32840;52.516;13.294;2022-07-29T22:47:57;7.47;;;2.20;;
47089;SDS011;32840;52.516;13.294;2022-07-29T22:50:42;10.23;;;2.42;;
47089;SDS011;32840;52.516;13.294;2022-07-29T22:53:27;5.72;;;2.55;;
47089;SDS011;32840;52.516;13.294;2022-07-29T22:56:12;2.92;;;2.13;;
47089;SDS011;32840;52.516;13.294;2022-07-29T22:58:57;8.68;;;2.40;;
47089;SDS011;32840;52.516;13.294;2022-07-29T23:01:42;12.55;;;2.67;;
47089;SDS011;32840;52.516;13.294;2022-07-29T23:04:27;7.38;;;2.35;;
47089;SDS011;32840;52.516;13.294;2022-07-29T23:07:12;4.82;;;2.05;;
47089;SDS011;32840;52.516;13.294;2022-07-29T23:09:57;7.68;;;1.98;;
47089;SDS011;32840;52.516;13.294;2022-07-29T23:12:41;5.72;;;2.30;;
47089;SDS011;32840;52.516;13.294;2022-07-29T23:15:26;7.32;;;2.15;;
47089;SDS011;32840;52.516;13.294;2022-07-29T23:18:11;7.82;;;2.50;;
47089;SDS011;32840;52.516;13.294;2022-07-29T23:20:56;4.88;;;2.00;;
47089;SDS011;32840;52.516;13.294;2022-07-29T23:23:41;6.28;;;2.03;;
47089;SDS011;32840;52.516;13.294;2022-07-29T23:26:28;15.68;;;2.78;;
47089;SDS011;32840;52.516;13.294;2022-07-29T23:29:14;9.80;;;2.53;;
47089;SDS011;32840;52.516;13.294;2022-07-29T23:31:59;8.75;;;2.05;;
47089;SDS011;32840;52.516;13.294;2022-07-29T23:34:44;5.68;;;2.42;;
47089;SDS011;32840;52.516;13.294;2022-07-29T23:37:29;4.88;;;2.20;;
47089;SDS011;32840;52.516;13.294;2022-07-29T23:40:15;6.30;;;2.20;;
47089;SDS011;32840;52.516;13.294;2022-07-29T23:43:01;8.65;;;2.63;;
47089;SDS011;32840;52.516;13.294;2022-07-29T23:45:46;5.80;;;2.35;;
47089;SDS011;32840;52.516;13.294;2022-07-29T23:48:31;5.35;;;2.45;;
47089;SDS011;32840;52.516;13.294;2022-07-29T23:51:16;4.03;;;2.17;;
47089;SDS011;32840;52.516;13.294;2022-07-29T23:54:01;5.47;;;1.85;;
47089;SDS011;32840;52.516;13.294;2022-07-29T23:56:46;11.45;;;2.33;;
47089;SDS011;32840;52.516;13.294;2022-07-29T23:59:30;8.25;;;2.40;;
